createdAt,value
2022-08-21T00:00:25.656Z,99849.39
2022-08-21T00:01:29.073Z,99852.23
2022-08-21T00:02:31.779Z,99846.95
2022-08-21T00:03:34.253Z,99850.14
2022-08-21T00:04:36.410Z,99851.27
2022-08-21T00:05:44.053Z,99845.08
2022-08-21T00:06:46.506Z,99851.98
2022-08-21T00:07:49.086Z,99850.73
2022-08-21T00:08:52.396Z,99846.48
2022-08-21T00:09:55.035Z,99844.48
2022-08-21T00:10:57.425Z,99844.48
2022-08-21T00:11:59.876Z,99844.09
2022-08-21T00:13:04.910Z,99846.06
2022-08-21T00:14:09.117Z,99846.48
2022-08-21T00:15:13.904Z,99851.14
2022-08-21T00:16:16.867Z,99848.59
2022-08-21T00:17:19.596Z,99852.15
2022-08-21T00:18:21.762Z,99841.70
2022-08-21T00:19:23.970Z,99843.53
2022-08-21T00:20:27.607Z,99850.45
2022-08-21T00:21:29.833Z,99849.61
2022-08-21T00:22:32.185Z,99851.43
2022-08-21T00:23:35.562Z,99852.02
2022-08-21T00:24:38.140Z,99853.03
2022-08-21T00:25:42.392Z,99850.34
2022-08-21T00:26:46.340Z,99858.55
2022-08-21T00:27:49.211Z,99854.70
2022-08-21T00:28:51.510Z,99862.36
2022-08-21T00:29:53.734Z,99860.06
2022-08-21T00:30:56.647Z,99851.63
2022-08-21T00:31:58.855Z,99851.08
2022-08-21T00:33:01.488Z,99846.25
2022-08-21T00:34:04.102Z,99856.84
2022-08-21T00:35:12.826Z,99860.94
2022-08-21T00:36:16.305Z,99852.20
2022-08-21T00:37:19.078Z,99848.94
2022-08-21T00:38:21.427Z,99855.02
2022-08-21T00:39:23.695Z,99853.03
2022-08-21T00:41:43.244Z,99845.08
2022-08-21T00:42:53.333Z,99852.48
2022-08-21T00:43:51.521Z,99851.19
2022-08-21T00:44:53.653Z,99848.94
2022-08-21T00:45:57.111Z,99849.37
2022-08-21T00:46:59.639Z,99839.95
2022-08-21T00:48:01.875Z,99846.84
2022-08-21T00:49:05.785Z,99843.47
2022-08-21T00:50:10.630Z,99837.27
2022-08-21T00:51:21.677Z,99845.75
2022-08-21T00:52:27.422Z,99845.02
2022-08-21T00:53:30.456Z,99838.94
2022-08-21T00:54:33.741Z,99839.80
2022-08-21T00:55:37.021Z,99849.56
2022-08-21T00:56:40.037Z,99840.39
2022-08-21T00:57:51.447Z,99851.81
2022-08-21T00:58:56.016Z,99850.53
2022-08-21T01:00:01.503Z,99844.62
2022-08-21T01:01:08.825Z,99841.47
2022-08-21T01:02:11.599Z,99850.14
2022-08-21T01:03:17.746Z,99842.63
2022-08-21T01:04:21.079Z,99846.84
2022-08-21T01:05:23.842Z,99840.13
2022-08-21T01:06:26.512Z,99839.59
2022-08-21T01:07:28.787Z,99849.84
2022-08-21T01:08:32.407Z,99838.69
2022-08-21T01:09:35.686Z,99843.91
2022-08-21T01:10:39.090Z,99846.88
2022-08-21T01:11:42.282Z,99845.35
2022-08-21T01:12:44.896Z,99839.88
2022-08-21T01:13:48.133Z,99843.94
2022-08-21T01:14:50.613Z,99804.87
2022-08-21T01:15:56.522Z,99841.08
2022-08-21T01:17:01.267Z,99845.56
2022-08-21T01:18:07.086Z,99847.45
2022-08-21T01:19:09.753Z,99853.11
2022-08-21T01:20:14.774Z,99842.67
2022-08-21T01:21:20.569Z,99825.59
2022-08-21T01:22:23.158Z,99845.50
2022-08-21T01:23:25.566Z,99842.95
2022-08-21T01:24:28.068Z,99842.41
2022-08-21T01:25:31.018Z,99846.33
2022-08-21T01:26:35.875Z,99847.78
2022-08-21T01:27:38.197Z,99840.71
2022-08-21T01:30:15.402Z,99844.05
2022-08-21T01:31:24.833Z,99854.55
2022-08-21T01:32:24.837Z,99850.89
2022-08-21T01:33:27.095Z,99845.53
2022-08-21T01:34:29.368Z,99846.22
2022-08-21T01:35:31.562Z,99850.45
2022-08-21T01:36:35.260Z,99849.08
2022-08-21T01:37:37.778Z,99845.70
2022-08-21T01:38:40.087Z,99844.41
2022-08-21T01:39:43.151Z,99854.15
2022-08-21T01:40:47.203Z,99851.06
2022-08-21T01:41:50.547Z,99852.45
2022-08-21T01:42:53.295Z,99852.45
2022-08-21T01:43:55.703Z,99854.01
2022-08-21T01:44:58.344Z,99851.76
2022-08-21T01:46:02.467Z,99850.31
2022-08-21T01:47:07.332Z,99856.00
2022-08-21T01:48:09.805Z,99844.69
2022-08-21T01:49:12.104Z,99839.73
2022-08-21T01:50:18.434Z,99846.66
2022-08-21T01:51:20.882Z,99841.00
2022-08-21T01:52:23.183Z,99838.17
2022-08-21T01:53:27.751Z,99844.41
2022-08-21T01:54:30.775Z,99846.54
2022-08-21T01:55:33.595Z,99830.02
2022-08-21T01:56:42.544Z,99835.09
2022-08-21T01:57:46.427Z,99833.24
2022-08-21T01:58:49.355Z,99828.02
2022-08-21T01:59:51.753Z,99827.73
2022-08-21T02:00:54.508Z,99832.12
2022-08-21T02:01:57.249Z,99822.66
2022-08-21T02:03:00.129Z,99826.50
2022-08-21T02:04:03.564Z,99837.23
2022-08-21T02:05:06.441Z,99830.70
2022-08-21T02:06:15.490Z,99846.11
2022-08-21T02:07:17.761Z,99838.89
2022-08-21T02:08:20.152Z,99840.05
2022-08-21T02:09:23.151Z,99839.73
2022-08-21T02:10:29.807Z,99832.55
2022-08-21T02:11:33.120Z,99842.70
2022-08-21T02:12:35.576Z,99833.39
2022-08-21T02:13:37.978Z,99844.52
2022-08-21T02:14:40.269Z,99840.16
2022-08-21T02:15:42.632Z,99835.92
2022-08-21T02:16:46.454Z,99856.55
2022-08-21T02:17:54.007Z,99838.46
2022-08-21T02:18:56.400Z,99841.84
2022-08-21T02:19:58.627Z,99840.71
2022-08-21T02:21:03.068Z,99842.41
2022-08-21T02:22:05.713Z,99846.94
2022-08-21T02:23:10.782Z,99832.70
2022-08-21T02:24:13.170Z,99827.73
2022-08-21T02:25:15.963Z,99837.05
2022-08-21T02:26:19.129Z,99832.00
2022-08-21T02:27:26.864Z,99840.05
2022-08-21T02:28:27.938Z,99844.41
2022-08-21T02:29:30.303Z,99834.22
2022-08-21T02:30:36.197Z,99851.47
2022-08-21T02:31:38.604Z,99848.64
2022-08-21T02:32:40.923Z,99844.11
2022-08-21T02:33:43.966Z,99842.98
2022-08-21T02:34:46.241Z,99841.14
2022-08-21T02:35:49.770Z,99840.16
2022-08-21T02:36:59.345Z,99843.42
2022-08-21T02:38:00.090Z,99845.56
2022-08-21T02:39:02.719Z,99848.27
2022-08-21T02:40:07.009Z,99848.27
2022-08-21T02:41:13.329Z,99848.41
2022-08-21T02:42:16.468Z,99846.70
2022-08-21T02:43:21.159Z,99847.25
2022-08-21T02:44:30.150Z,99845.41
2022-08-21T02:45:28.256Z,99852.21
2022-08-21T02:46:32.198Z,99851.78
2022-08-21T02:47:34.512Z,99847.25
2022-08-21T02:48:37.315Z,99843.88
2022-08-21T02:49:39.759Z,99847.13
2022-08-21T02:50:45.764Z,99847.69
2022-08-21T02:51:48.043Z,99839.64
2022-08-21T02:52:51.948Z,99843.47
2022-08-21T02:53:54.661Z,99840.06
2022-08-21T02:54:56.955Z,99840.20
2022-08-21T02:56:01.510Z,99848.84
2022-08-21T02:57:03.845Z,99845.87
2022-08-21T02:58:07.748Z,99841.48
2022-08-21T02:59:10.010Z,99842.05
2022-08-21T03:00:14.675Z,99851.81
2022-08-21T03:01:16.907Z,99852.09
2022-08-21T03:02:19.574Z,99852.09
2022-08-21T03:03:21.938Z,99850.50
2022-08-21T03:04:24.135Z,99850.80
2022-08-21T03:05:28.827Z,99860.25
2022-08-21T03:06:32.860Z,99853.19
2022-08-21T03:07:35.117Z,99855.87
2022-08-21T03:08:37.478Z,99851.78
2022-08-21T03:09:45.593Z,99850.22
2022-08-21T03:10:47.574Z,99849.65
2022-08-21T03:11:50.304Z,99852.06
2022-08-21T03:12:52.619Z,99854.05
2022-08-21T03:13:54.807Z,99849.81
2022-08-21T03:14:57.145Z,99843.88
2022-08-21T03:16:00.122Z,99847.69
2022-08-21T03:17:03.187Z,99854.05
2022-08-21T03:18:06.274Z,99858.27
2022-08-21T03:19:09.034Z,99865.76
2022-08-21T03:20:14.647Z,99856.73
2022-08-21T03:21:17.162Z,99855.44
2022-08-21T03:22:20.091Z,99855.73
2022-08-21T03:23:23.605Z,99854.17
2022-08-21T03:24:25.973Z,99848.27
2022-08-21T03:25:39.892Z,99850.65
2022-08-21T03:26:35.302Z,99853.33
2022-08-21T03:27:37.878Z,99857.42
2022-08-21T03:28:42.588Z,99861.67
2022-08-21T03:29:44.943Z,99857.14
2022-08-21T03:30:49.773Z,99863.63
2022-08-21T03:31:51.982Z,99862.94
2022-08-21T03:32:54.367Z,99869.27
2022-08-21T03:33:58.909Z,99868.02
2022-08-21T03:35:01.328Z,99874.64
2022-08-21T03:36:07.251Z,99868.16
2022-08-21T03:37:09.633Z,99855.87
2022-08-21T03:38:12.187Z,99860.95
2022-08-21T03:39:14.509Z,99856.87
2022-08-21T03:40:19.362Z,99856.30
2022-08-21T03:41:21.940Z,99863.34
2022-08-21T03:42:24.978Z,99861.67
2022-08-21T03:43:27.951Z,99861.36
2022-08-21T03:44:32.561Z,99878.59
2022-08-21T03:45:35.286Z,99838.55
2022-08-21T03:46:38.432Z,99873.38
2022-08-21T03:49:05.949Z,99868.11
2022-08-21T03:50:09.319Z,99871.22
2022-08-21T03:51:11.807Z,99879.41
2022-08-21T03:52:14.622Z,99883.66
2022-08-21T03:53:18.038Z,99882.36
2022-08-21T03:54:21.405Z,99875.03
2022-08-21T03:55:24.581Z,99883.62
2022-08-21T03:56:27.723Z,99883.66
2022-08-21T03:57:30.053Z,99885.03
2022-08-21T03:59:23.827Z,99882.50
2022-08-21T04:00:28.986Z,99889.56
2022-08-21T04:01:31.404Z,99885.91
2022-08-21T04:02:33.962Z,99889.14
2022-08-21T04:03:37.905Z,99892.63
2022-08-21T04:04:40.079Z,99886.16
2022-08-21T04:05:42.455Z,99886.16
2022-08-21T04:06:45.010Z,99895.92
2022-08-21T04:07:47.367Z,99891.53
2022-08-21T04:08:49.772Z,99888.56
2022-08-21T04:09:52.047Z,99891.24
2022-08-21T04:10:56.851Z,99887.00
2022-08-21T04:12:00.543Z,99891.24
2022-08-21T04:13:04.373Z,99886.71
2022-08-21T04:14:06.745Z,99897.99
2022-08-21T04:15:12.021Z,99883.16
2022-08-21T04:16:15.172Z,99883.31
2022-08-21T04:17:18.213Z,99880.59
2022-08-21T04:18:20.986Z,99882.44
2022-08-21T04:19:23.243Z,99880.84
2022-08-21T04:20:26.629Z,99876.20
2022-08-21T04:21:30.910Z,99882.91
2022-08-21T04:22:33.202Z,99880.23
2022-08-21T04:23:35.690Z,99875.41
2022-08-21T04:24:37.941Z,99871.59
2022-08-21T04:25:40.301Z,99873.99
2022-08-21T04:26:43.581Z,99874.83
2022-08-21T04:27:46.361Z,99873.99
2022-08-21T04:28:48.836Z,99879.94
2022-08-21T04:29:51.154Z,99865.66
2022-08-21T04:30:54.303Z,99869.31
2022-08-21T04:31:56.980Z,99865.77
2022-08-21T04:32:59.810Z,99870.55
2022-08-21T04:34:02.922Z,99874.20
2022-08-21T04:35:08.609Z,99876.49
2022-08-21T04:36:13.061Z,99887.23
2022-08-21T04:37:15.409Z,99878.27
2022-08-21T04:38:18.170Z,99883.78
2022-08-21T04:39:20.486Z,99879.58
2022-08-21T04:40:26.849Z,99883.39
2022-08-21T04:41:30.062Z,99886.80
2022-08-21T04:42:32.407Z,99878.16
2022-08-21T04:43:35.097Z,99880.27
2022-08-21T04:44:37.410Z,99880.65
2022-08-21T04:45:43.075Z,99886.03
2022-08-21T04:46:45.690Z,99883.05
2022-08-21T04:47:52.693Z,99888.16
2022-08-21T04:48:54.518Z,99877.42
2022-08-21T04:49:57.152Z,99882.89
2022-08-21T04:52:23.565Z,99883.95
2022-08-21T04:53:38.595Z,99876.63
2022-08-21T04:54:42.882Z,99881.41
2022-08-21T04:55:45.488Z,99880.22
2022-08-21T04:56:55.869Z,99873.92
2022-08-21T04:57:59.335Z,99880.63
2022-08-21T04:59:05.650Z,99873.78
2022-08-21T05:00:13.633Z,99877.57
2022-08-21T05:01:17.116Z,99878.17
2022-08-21T05:02:19.563Z,99867.37
2022-08-21T05:03:22.882Z,99871.35
2022-08-21T05:04:28.826Z,99871.73
2022-08-21T05:05:31.181Z,99875.35
2022-08-21T05:06:36.952Z,99882.30
2022-08-21T05:07:42.288Z,99876.92
2022-08-21T05:08:47.428Z,99880.53
2022-08-21T05:09:50.363Z,99882.05
2022-08-21T05:10:57.014Z,99880.07
2022-08-21T05:11:57.402Z,99889.39
2022-08-21T05:13:00.555Z,99884.77
2022-08-21T05:14:03.930Z,99883.84
2022-08-21T05:15:07.245Z,99876.12
2022-08-21T05:16:12.409Z,99879.53
2022-08-21T05:17:15.168Z,99876.20
2022-08-21T05:18:17.735Z,99872.89
2022-08-21T05:19:20.405Z,99877.13
2022-08-21T05:20:24.392Z,99868.20
2022-08-21T05:21:26.667Z,99870.25
2022-08-21T05:22:28.974Z,99870.95
2022-08-21T05:23:31.383Z,99876.34
2022-08-21T05:24:33.886Z,99869.62
2022-08-21T05:25:36.474Z,99874.17
2022-08-21T05:26:46.388Z,99869.62
2022-08-21T05:27:44.021Z,99871.00
2022-08-21T05:28:46.703Z,99870.17
2022-08-21T05:29:50.167Z,99874.37
2022-08-21T05:30:53.167Z,99855.33
2022-08-21T05:31:57.527Z,99871.06
2022-08-21T05:33:02.224Z,99878.16
2022-08-21T05:34:04.764Z,99879.19
2022-08-21T05:35:08.403Z,99881.52
2022-08-21T05:36:11.027Z,99872.44
2022-08-21T05:37:13.693Z,99876.83
2022-08-21T05:38:17.788Z,99878.48
2022-08-21T05:39:20.246Z,99878.86
2022-08-21T05:40:24.238Z,99867.71
2022-08-21T05:41:26.500Z,99831.47
2022-08-21T05:42:28.909Z,99859.27
2022-08-21T05:43:31.393Z,99861.30
2022-08-21T05:44:33.915Z,99873.11
2022-08-21T05:45:42.969Z,99871.25
2022-08-21T05:46:42.208Z,99869.04
2022-08-21T05:47:44.589Z,99863.32
2022-08-21T05:48:47.054Z,99866.70
2022-08-21T05:49:49.360Z,99866.70
2022-08-21T05:50:52.847Z,99871.23
2022-08-21T05:51:55.305Z,99874.09
2022-08-21T05:52:58.412Z,99864.95
2022-08-21T05:54:02.382Z,99869.32
2022-08-21T05:55:05.446Z,99864.06
2022-08-21T05:56:08.109Z,99874.38
2022-08-21T05:57:10.283Z,99874.66
2022-08-21T05:58:15.176Z,99870.22
2022-08-21T05:59:17.995Z,99868.53
2022-08-21T06:00:20.769Z,99866.47
2022-08-21T06:01:23.528Z,99867.87
2022-08-21T06:02:26.547Z,99869.88
2022-08-21T06:04:42.473Z,99863.19
2022-08-21T06:05:45.580Z,99870.86
2022-08-21T06:06:48.156Z,99870.53
2022-08-21T06:07:51.205Z,99866.17
2022-08-21T06:08:53.571Z,99866.17
2022-08-21T06:09:55.852Z,99882.02
2022-08-21T06:11:01.154Z,99876.11
2022-08-21T06:12:09.514Z,99877.80
2022-08-21T06:13:12.696Z,99873.72
2022-08-21T06:14:15.859Z,99879.67
2022-08-21T06:15:18.538Z,99878.63
2022-08-21T06:16:22.008Z,99876.44
2022-08-21T06:17:24.485Z,99881.58
2022-08-21T06:18:27.233Z,99869.70
2022-08-21T06:19:29.749Z,99866.94
2022-08-21T06:20:34.007Z,99870.24
2022-08-21T06:21:36.422Z,99872.59
2022-08-21T06:22:39.001Z,99873.50
2022-08-21T06:23:42.597Z,99869.94
2022-08-21T06:24:45.367Z,99867.91
2022-08-21T06:25:47.683Z,99865.64
2022-08-21T06:26:51.291Z,99868.27
2022-08-21T06:28:09.799Z,99863.62
2022-08-21T06:29:13.538Z,99869.34
2022-08-21T06:30:16.110Z,99861.98
2022-08-21T06:31:21.450Z,99858.44
2022-08-21T06:32:23.864Z,99861.52
2022-08-21T06:33:30.503Z,99860.88
2022-08-21T06:34:30.558Z,99855.01
2022-08-21T06:35:33.719Z,99858.27
2022-08-21T06:36:37.049Z,99869.34
2022-08-21T06:37:39.576Z,99857.56
2022-08-21T06:38:42.183Z,99855.13
2022-08-21T06:39:46.430Z,99857.19
2022-08-21T06:40:50.606Z,99855.80
2022-08-21T06:41:56.537Z,99852.14
2022-08-21T06:43:06.477Z,99860.17
2022-08-21T06:44:09.480Z,99851.69
2022-08-21T06:45:11.860Z,99853.84
2022-08-21T06:46:14.520Z,99851.31
2022-08-21T06:47:16.842Z,99845.61
2022-08-21T06:48:19.673Z,99840.09
2022-08-21T06:49:21.963Z,99849.80
2022-08-21T06:50:24.494Z,99845.03
2022-08-21T06:51:27.719Z,99845.03
2022-08-21T06:52:30.022Z,99845.94
2022-08-21T06:53:32.371Z,99844.35
2022-08-21T06:54:34.781Z,99847.89
2022-08-21T06:55:38.230Z,99845.67
2022-08-21T06:56:41.111Z,99852.19
2022-08-21T06:57:47.980Z,99852.19
2022-08-21T06:58:52.143Z,99851.92
2022-08-21T06:59:54.226Z,99847.17
2022-08-21T07:01:00.725Z,99846.95
2022-08-21T07:02:01.065Z,99841.70
2022-08-21T07:03:03.493Z,99833.55
2022-08-21T07:04:05.781Z,99842.67
2022-08-21T07:05:18.404Z,99846.47
2022-08-21T07:06:13.414Z,99846.98
2022-08-21T07:07:15.926Z,99844.33
2022-08-21T07:08:18.119Z,99843.31
2022-08-21T07:09:24.485Z,99844.02
2022-08-21T07:10:26.996Z,99845.77
2022-08-21T07:11:29.373Z,99840.44
2022-08-21T07:12:31.615Z,99849.18
2022-08-21T07:13:34.099Z,99842.13
2022-08-21T07:14:36.998Z,99832.40
2022-08-21T07:15:39.395Z,99843.31
2022-08-21T07:16:44.688Z,99838.80
2022-08-21T07:17:56.924Z,99833.00
2022-08-21T07:18:59.317Z,99823.28
2022-08-21T07:20:02.322Z,99840.02
2022-08-21T07:21:07.321Z,99835.88
2022-08-21T07:22:10.072Z,99837.67
2022-08-21T07:23:19.569Z,99836.90
2022-08-21T07:24:21.923Z,99833.41
2022-08-21T07:25:27.509Z,99841.87
2022-08-21T07:26:33.795Z,99839.89
2022-08-21T07:27:36.732Z,99837.67
2022-08-21T07:28:40.933Z,99837.73
2022-08-21T07:29:43.485Z,99838.25
2022-08-21T07:30:48.325Z,99834.40
2022-08-21T07:31:50.767Z,99831.49
2022-08-21T07:32:55.471Z,99836.18
2022-08-21T07:34:00.031Z,99832.45
2022-08-21T07:35:02.794Z,99830.80
2022-08-21T07:36:06.709Z,99833.91
2022-08-21T07:37:10.302Z,99830.98
2022-08-21T07:38:13.051Z,99829.53
2022-08-21T07:39:15.308Z,99825.52
2022-08-21T07:40:19.680Z,99825.44
2022-08-21T07:41:26.243Z,99821.35
2022-08-21T07:42:30.964Z,99817.05
2022-08-21T07:43:36.935Z,99824.05
2022-08-21T07:44:39.811Z,99824.48
2022-08-21T07:45:42.686Z,99816.56
2022-08-21T07:46:45.355Z,99821.14
2022-08-21T07:47:52.017Z,99822.00
2022-08-21T07:48:56.027Z,99820.20
2022-08-21T07:49:58.453Z,99819.14
2022-08-21T07:51:05.053Z,99811.65
2022-08-21T07:52:07.450Z,99829.32
2022-08-21T07:53:09.732Z,99809.50
2022-08-21T07:54:14.534Z,99818.74
2022-08-21T07:55:20.148Z,99815.77
2022-08-21T07:56:22.807Z,99819.83
2022-08-21T07:57:25.160Z,99818.11
2022-08-21T07:58:27.334Z,99829.70
2022-08-21T07:59:29.771Z,99825.44
2022-08-21T08:00:34.103Z,99831.34
2022-08-21T08:01:38.625Z,99832.40
2022-08-21T08:02:45.098Z,99826.07
2022-08-21T08:03:47.490Z,99822.69
2022-08-21T08:04:51.274Z,99830.44
2022-08-21T08:05:53.751Z,99830.64
2022-08-21T08:06:56.860Z,99826.11
2022-08-21T08:07:59.843Z,99824.95
2022-08-21T08:10:17.944Z,99818.63
2022-08-21T08:11:20.340Z,99811.65
2022-08-21T08:12:22.613Z,99828.06
2022-08-21T08:13:26.209Z,99825.34
2022-08-21T08:14:31.425Z,99808.61
2022-08-21T08:15:37.378Z,99813.97
2022-08-21T08:16:37.685Z,99811.19
2022-08-21T08:17:40.047Z,99811.50
2022-08-21T08:18:42.630Z,99809.96
2022-08-21T08:19:45.145Z,99813.22
2022-08-21T08:20:49.585Z,99813.38
2022-08-21T08:21:54.814Z,99818.63
2022-08-21T08:22:57.740Z,99810.17
2022-08-21T08:24:00.776Z,99820.28
2022-08-21T08:25:09.408Z,99807.81
2022-08-21T08:26:11.853Z,99807.81
2022-08-21T08:27:15.031Z,99807.70
2022-08-21T08:28:17.927Z,99803.32
2022-08-21T08:29:21.763Z,99806.66
2022-08-21T08:30:24.899Z,99811.53
2022-08-21T08:31:27.166Z,99804.13
2022-08-21T08:32:29.499Z,99804.75
2022-08-21T08:33:32.273Z,99808.09
2022-08-21T08:34:35.743Z,99804.75
2022-08-21T08:35:39.148Z,99801.72
2022-08-21T08:36:42.436Z,99802.64
2022-08-21T08:37:46.666Z,99796.64
2022-08-21T08:38:49.706Z,99809.61
2022-08-21T08:39:52.839Z,99798.69
2022-08-21T08:41:00.380Z,99800.20
2022-08-21T08:42:33.733Z,99808.34
2022-08-21T08:43:20.281Z,99812.75
2022-08-21T08:44:22.684Z,99811.30
2022-08-21T08:45:26.623Z,99809.07
2022-08-21T08:48:03.291Z,99793.59
2022-08-21T08:49:33.222Z,99801.89
2022-08-21T08:50:51.536Z,99806.03
2022-08-21T08:52:00.220Z,99797.15
2022-08-21T08:53:08.951Z,99810.23
2022-08-21T08:55:42.971Z,99798.11
2022-08-21T08:56:46.557Z,99809.34
2022-08-21T08:57:51.497Z,99803.72
2022-08-21T08:58:56.423Z,99802.30
2022-08-21T09:00:02.531Z,99809.97
2022-08-21T09:01:08.764Z,99807.34
2022-08-21T09:02:13.026Z,99805.48
2022-08-21T09:03:16.468Z,99806.00
2022-08-21T09:04:23.300Z,99807.97
2022-08-21T09:05:29.121Z,99801.75
2022-08-21T09:06:57.542Z,99803.95
2022-08-21T09:08:35.555Z,99800.95
2022-08-21T09:09:41.496Z,99810.83
2022-08-21T09:11:17.871Z,99799.62
2022-08-21T09:12:36.103Z,99798.60
2022-08-21T09:13:48.200Z,99802.52
2022-08-21T09:15:21.709Z,99802.84
2022-08-21T09:16:28.062Z,99812.69
2022-08-21T09:17:51.334Z,99805.76
2022-08-21T09:19:06.400Z,99808.75
2022-08-21T09:20:27.895Z,99810.66
2022-08-21T09:21:40.862Z,99806.06
2022-08-21T09:22:52.576Z,99805.45
2022-08-21T09:25:24.550Z,99796.03
2022-08-21T09:26:34.649Z,99803.33
2022-08-21T09:27:38.022Z,99802.26
2022-08-21T09:28:41.115Z,99811.94
2022-08-21T09:29:46.961Z,99806.09
2022-08-21T09:30:52.718Z,99801.52
2022-08-21T09:31:55.382Z,99808.28
2022-08-21T09:32:58.322Z,99803.59
2022-08-21T09:34:03.743Z,99806.98
2022-08-21T09:35:13.148Z,99811.28
2022-08-21T09:36:32.591Z,99805.84
2022-08-21T09:37:47.459Z,99806.20
2022-08-21T09:38:54.722Z,99800.02
2022-08-21T09:39:58.389Z,99804.27
2022-08-21T09:41:10.242Z,99802.69
2022-08-21T09:42:16.153Z,99807.06
2022-08-21T09:43:21.318Z,99795.23
2022-08-21T09:44:29.794Z,99791.56
2022-08-21T09:45:33.826Z,99792.73
2022-08-21T09:46:36.837Z,99794.08
2022-08-21T09:47:39.245Z,99800.63
2022-08-21T09:48:47.449Z,99794.48
2022-08-21T09:49:50.514Z,99794.42
2022-08-21T09:50:54.329Z,99792.68
2022-08-21T09:51:58.510Z,99800.00
2022-08-21T09:53:03.232Z,99798.11
2022-08-21T09:54:09.261Z,99798.11
2022-08-21T09:55:17.605Z,99788.77
2022-08-21T09:56:31.479Z,99790.02
2022-08-21T09:57:34.184Z,99789.27
2022-08-21T09:58:39.386Z,99789.82
2022-08-21T09:59:44.442Z,99778.18
2022-08-21T10:00:50.791Z,99785.02
2022-08-21T10:01:54.286Z,99779.44
2022-08-21T10:03:15.432Z,99786.27
2022-08-21T10:04:24.516Z,99789.91
2022-08-21T10:05:27.302Z,99782.21
2022-08-21T10:06:30.131Z,99786.53
2022-08-21T10:07:36.816Z,99788.53
2022-08-21T10:08:40.904Z,99783.10
2022-08-21T10:09:43.246Z,99796.19
2022-08-21T10:10:46.023Z,99789.90
2022-08-21T10:11:51.915Z,99789.53
2022-08-21T10:13:03.575Z,99802.02
2022-08-21T10:14:21.786Z,99795.09
2022-08-21T10:15:42.791Z,99791.25
2022-08-21T10:16:57.276Z,99791.16
2022-08-21T10:18:18.067Z,99790.69
2022-08-21T10:19:29.239Z,99793.44
2022-08-21T10:20:47.760Z,99795.80
2022-08-21T10:22:08.311Z,99790.73
2022-08-21T10:23:29.516Z,99786.42
2022-08-21T10:24:35.396Z,99781.67
2022-08-21T10:26:13.225Z,99777.07
2022-08-21T10:27:35.380Z,99775.18
2022-08-21T10:28:53.826Z,99776.58
2022-08-21T10:29:59.779Z,99775.58
2022-08-21T10:31:09.128Z,99774.95
2022-08-21T10:32:26.350Z,99781.84
2022-08-21T10:33:51.700Z,99774.16
2022-08-21T10:35:17.556Z,99780.78
2022-08-21T10:36:24.303Z,99775.78
2022-08-21T10:37:30.064Z,99756.39
2022-08-21T10:39:02.647Z,99767.66
2022-08-21T10:39:58.691Z,99769.42
2022-08-21T10:41:07.675Z,99763.00
2022-08-21T10:42:28.272Z,99773.66
2022-08-21T10:43:54.591Z,99769.29
2022-08-21T10:45:03.240Z,99781.05
2022-08-21T10:47:36.575Z,99768.58
2022-08-21T10:48:42.348Z,99767.23
2022-08-21T10:49:51.019Z,99771.92
2022-08-21T10:51:09.322Z,99762.40
2022-08-21T10:52:45.606Z,99767.23
2022-08-21T10:53:51.448Z,99759.48
2022-08-21T10:55:06.763Z,99761.39
2022-08-21T10:56:22.933Z,99762.16
2022-08-21T10:57:32.677Z,99756.06
2022-08-21T10:58:38.666Z,99764.89
2022-08-21T10:59:44.650Z,99751.46
2022-08-21T11:00:50.495Z,99756.92
2022-08-21T11:02:22.953Z,99749.15
2022-08-21T11:03:39.158Z,99755.66
2022-08-21T11:04:56.775Z,99756.39
2022-08-21T11:06:02.620Z,99754.81
2022-08-21T11:07:09.317Z,99756.39
2022-08-21T11:08:16.757Z,99752.30
2022-08-21T11:09:22.156Z,99754.02
2022-08-21T11:11:47.082Z,99745.69
2022-08-21T11:12:52.013Z,99749.27
2022-08-21T11:14:00.650Z,99754.03
2022-08-21T11:15:28.718Z,99753.74
2022-08-21T11:16:38.522Z,99752.72
2022-08-21T11:17:50.715Z,99752.22
2022-08-21T11:18:59.545Z,99749.37
2022-08-21T11:20:14.789Z,99751.08
2022-08-21T11:23:02.998Z,99745.27
2022-08-21T11:24:24.861Z,99747.95
2022-08-21T11:26:54.719Z,99739.86
2022-08-21T11:28:03.190Z,99740.45
2022-08-21T11:29:09.122Z,99744.00
2022-08-21T11:30:18.373Z,99738.53
2022-08-21T11:31:37.632Z,99739.00
2022-08-21T11:32:52.422Z,99734.59
2022-08-21T11:34:24.606Z,99732.30
2022-08-21T11:35:37.214Z,99745.08
2022-08-21T11:36:50.119Z,99738.41
2022-08-21T11:37:58.861Z,99739.65
2022-08-21T11:39:04.821Z,99732.75
2022-08-21T11:40:13.867Z,99739.63
2022-08-21T11:41:32.351Z,99741.92
2022-08-21T11:42:47.801Z,99732.09
2022-08-21T11:43:56.553Z,99736.09
2022-08-21T11:45:23.778Z,99730.20
2022-08-21T11:46:47.139Z,99740.66
2022-08-21T11:47:56.143Z,99733.98
2022-08-21T11:49:20.222Z,99735.27
2022-08-21T11:50:34.807Z,99740.27
2022-08-21T11:51:35.167Z,99733.17
2022-08-21T11:52:41.036Z,99736.50
2022-08-21T11:53:49.818Z,99723.94
2022-08-21T11:55:01.130Z,99733.98
2022-08-21T11:56:22.624Z,99734.59
2022-08-21T11:57:26.561Z,99730.20
2022-08-21T11:58:32.466Z,99728.08
2022-08-21T11:59:47.324Z,99728.95
2022-08-21T12:00:56.448Z,99734.59
2022-08-21T12:01:59.788Z,99719.30
2022-08-21T12:03:14.890Z,99731.88
2022-08-21T12:04:35.685Z,99728.93
2022-08-21T12:05:44.722Z,99730.56
2022-08-21T12:06:47.389Z,99731.45
2022-08-21T12:07:55.373Z,99731.00
2022-08-21T12:09:05.407Z,99729.79
2022-08-21T12:10:11.620Z,99732.95
2022-08-21T12:11:20.579Z,99734.81
2022-08-21T12:12:35.514Z,99733.78
2022-08-21T12:13:42.708Z,99739.64
2022-08-21T12:14:48.759Z,99731.27
2022-08-21T12:15:51.106Z,99739.42
2022-08-21T12:16:57.169Z,99736.70
2022-08-21T12:18:26.158Z,99738.56
2022-08-21T12:19:31.284Z,99735.64
2022-08-21T12:20:50.230Z,99677.49
2022-08-21T12:21:51.661Z,99731.70
2022-08-21T12:22:57.742Z,99734.42
2022-08-21T12:24:04.764Z,99731.08
2022-08-21T12:25:10.927Z,99741.34
2022-08-21T12:26:23.684Z,99734.40
2022-08-21T12:30:30.193Z,99729.67
2022-08-21T12:31:32.604Z,99732.14
2022-08-21T12:32:46.795Z,99728.77
2022-08-21T12:33:56.608Z,99732.97
2022-08-21T12:35:08.409Z,99728.16
2022-08-21T12:36:19.686Z,99727.36
2022-08-21T12:37:25.533Z,99726.50
2022-08-21T12:38:31.098Z,99725.64
2022-08-21T12:39:36.435Z,99724.61
2022-08-21T12:40:46.436Z,99724.81
2022-08-21T12:41:52.585Z,99725.27
2022-08-21T12:42:59.298Z,99727.53
2022-08-21T12:44:11.428Z,99723.78
2022-08-21T12:45:25.376Z,99723.53
2022-08-21T12:46:39.097Z,99727.73
2022-08-21T12:47:48.068Z,99723.95
2022-08-21T12:48:57.015Z,99718.09
2022-08-21T12:50:12.002Z,99714.14
2022-08-21T12:51:20.612Z,99717.69
2022-08-21T12:52:45.075Z,99718.16
2022-08-21T12:53:53.626Z,99725.23
2022-08-21T12:54:55.899Z,99726.26
2022-08-21T12:56:00.182Z,99733.18
2022-08-21T12:57:05.310Z,99725.64
2022-08-21T12:58:09.452Z,99726.25
2022-08-21T12:59:12.536Z,99721.88
2022-08-21T13:00:18.851Z,99727.94
2022-08-21T13:01:30.067Z,99730.65
2022-08-21T13:02:35.587Z,99723.32
2022-08-21T13:03:39.415Z,99721.47
2022-08-21T13:04:42.160Z,99720.81
2022-08-21T13:05:45.259Z,99723.12
2022-08-21T13:06:51.452Z,99728.16
2022-08-21T13:07:53.998Z,99714.75
2022-08-21T13:10:19.078Z,99723.98
2022-08-21T13:11:32.415Z,99718.51
2022-08-21T13:12:32.432Z,99727.11
2022-08-21T13:13:34.127Z,99721.88
2022-08-21T13:14:46.043Z,99720.19
2022-08-21T13:15:47.761Z,99718.72